Time;durP1;ratioP1;P1;durP2;ratioP2;P2;SDS_P1;SDS_P2;PMS_P1;PMS_P2;Temp;Humidity;BMP_temperature;BMP_pressure;BME280_temperature;BME280_humidity;BME280_pressure;Samples;Min_cycle;Max_cycle;Signal;HPM_P1;HPM_P2
2022/09/23 00:02:00;;;;;;;1.60;0.70;;;11.20;33.20;;;;;;5058103;28;20443;-73
2022/09/23 00:04:28;;;;;;;1.90;0.80;;;11.10;99.90;;;;;;5060269;28;20447;-73
2022/09/23 00:06:55;;;;;;;1.40;0.90;;;11.10;1.00;;;;;;5058395;28;20517;-74
2022/09/23 00:09:21;;;;;;;1.73;0.90;;;11.10;1.00;;;;;;5060329;28;20511;-73
2022/09/23 00:11:51;;;;;;;1.33;0.77;;;11.10;1.00;;;;;;5056727;28;20511;-74
2022/09/23 00:14:20;;;;;;;1.13;0.90;;;11.10;1.00;;;;;;5060082;28;20443;-74
2022/09/23 00:16:47;;;;;;;3.63;0.73;;;11.10;1.00;;;;;;5056518;28;20466;-73
2022/09/23 00:19:15;;;;;;;1.37;0.80;;;11.20;1.00;;;;;;5058349;28;20547;-73
2022/09/23 00:21:42;;;;;;;0.93;0.70;;;11.10;1.00;;;;;;5055065;28;20542;-73
2022/09/23 00:24:09;;;;;;;1.23;0.80;;;11.10;48.10;;;;;;5058420;28;20428;-74
2022/09/23 00:26:36;;;;;;;0.97;0.80;;;11.00;64.20;;;;;;5056198;28;20543;-74
2022/09/23 00:29:03;;;;;;;1.00;0.80;;;11.00;99.90;;;;;;5058802;28;20545;-73
2022/09/23 00:31:30;;;;;;;1.40;0.70;;;11.00;99.90;;;;;;5056506;28;20459;-74
2022/09/23 00:33:59;;;;;;;1.10;0.80;;;11.00;99.90;;;;;;5058373;28;20941;-74
2022/09/23 00:36:29;;;;;;;1.67;0.90;;;11.00;95.10;;;;;;5055582;28;20475;-73
2022/09/23 00:38:56;;;;;;;0.97;0.70;;;11.00;99.90;;;;;;5058215;28;20538;-73
2022/09/23 00:41:23;;;;;;;1.20;0.80;;;11.00;99.90;;;;;;5056002;28;20495;-74
2022/09/23 00:43:52;;;;;;;1.00;0.70;;;11.00;99.90;;;;;;5057552;28;20529;-74
2022/09/23 00:46:22;;;;;;;1.10;0.80;;;11.00;99.90;;;;;;5055177;28;20913;-74
2022/09/23 00:48:54;;;;;;;1.43;0.90;;;11.00;99.90;;;;;;5058515;28;20509;-74
2022/09/23 00:51:24;;;;;;;0.93;0.77;;;10.90;99.90;;;;;;5054762;28;20901;-74
2022/09/23 00:53:53;;;;;;;2.07;0.83;;;10.80;1.00;;;;;;5057192;28;20523;-73
2022/09/23 00:56:24;;;;;;;1.00;0.70;;;10.80;59.30;;;;;;5053505;28;20513;-74
2022/09/23 00:58:51;;;;;;;1.17;0.80;;;10.80;21.30;;;;;;5057243;28;20447;-73
2022/09/23 01:01:19;;;;;;;1.43;0.77;;;10.80;99.90;;;;;;5054326;28;20459;-73
2022/09/23 01:03:46;;;;;;;1.37;0.93;;;10.70;99.90;;;;;;5055771;28;20478;-73
2022/09/23 01:06:14;;;;;;;1.20;0.90;;;10.60;99.90;;;;;;5053105;28;20462;-73
2022/09/23 01:08:42;;;;;;;1.97;0.97;;;10.60;31.80;;;;;;5057398;28;20451;-73
2022/09/23 01:11:26;;;;;;;1.20;0.90;;;10.60;99.90;;;;;;5054409;28;20459;-74
2022/09/23 01:14:01;;;;;;;1.20;0.80;;;10.60;99.90;;;;;;5057963;28;20932;-74
2022/09/23 01:16:37;;;;;;;0.93;0.70;;;10.70;99.90;;;;;;5054691;28;20959;-74
2022/09/23 01:19:20;;;;;;;2.50;0.90;;;10.80;1.00;;;;;;5057905;28;20537;-74
2022/09/23 01:21:57;;;;;;;1.30;0.80;;;10.80;1.00;;;;;;5054636;28;20546;-73
2022/09/23 01:24:46;;;;;;;1.43;0.90;;;10.80;91.80;;;;;;5057567;28;20542;-72
2022/09/23 01:27:40;;;;;;;2.60;0.80;;;10.90;1.00;;;;;;5054819;28;20459;-72
2022/09/23 01:30:46;;;;;;;1.80;0.90;;;10.80;99.90;;;;;;5046920;28;20746;-72
2022/09/23 01:33:23;;;;;;;1.37;0.80;;;10.80;99.90;;;;;;4999191;28;21005;-74
2022/09/23 01:36:06;;;;;;;1.37;0.80;;;10.70;90.80;;;;;;5054615;28;20512;-72
2022/09/23 01:38:40;;;;;;;1.00;0.70;;;10.70;1.00;;;;;;5057332;28;20897;-72
2022/09/23 01:41:17;;;;;;;1.60;0.77;;;10.60;1.00;;;;;;5054021;28;20902;-72
2022/09/23 01:43:53;;;;;;;1.57;0.80;;;10.60;1.00;;;;;;5057652;28;20478;-72
2022/09/23 01:46:26;;;;;;;2.37;0.70;;;10.60;1.00;;;;;;5054673;28;20471;-72
2022/09/23 01:49:02;;;;;;;1.47;0.90;;;10.50;1.00;;;;;;5057065;28;20895;-72
2022/09/23 01:51:34;;;;;;;1.03;0.70;;;10.50;99.90;;;;;;5053440;28;20451;-72
2022/09/23 01:54:08;;;;;;;1.30;0.80;;;10.60;1.00;;;;;;5056061;28;20479;-72
2022/09/23 01:56:38;;;;;;;1.20;0.80;;;10.60;1.00;;;;;;5052274;28;20443;-72
2022/09/23 01:59:11;;;;;;;1.00;0.60;;;10.60;1.00;;;;;;5055246;28;20444;-72
2022/09/23 02:01:43;;;;;;;1.20;0.80;;;10.60;1.00;;;;;;5053542;28;20494;-72
2022/09/23 02:04:18;;;;;;;1.67;0.80;;;10.60;1.00;;;;;;5055299;28;20440;-72
2022/09/23 02:06:50;;;;;;;1.10;0.80;;;10.60;1.00;;;;;;5053633;28;20553;-72
2022/09/23 02:09:20;;;;;;;1.10;0.70;;;10.50;1.00;;;;;;5055710;28;20432;-72
2022/09/23 02:11:51;;;;;;;1.40;0.70;;;10.40;99.90;;;;;;5056193;28;20475;-72
2022/09/23 02:14:24;;;;;;;1.00;0.80;;;10.40;99.90;;;;;;5055774;28;20482;-73
2022/09/23 02:16:54;;;;;;;2.37;0.73;;;10.40;99.90;;;;;;5052801;28;20455;-73
2022/09/23 02:19:28;;;;;;;1.00;0.70;;;10.40;1.00;;;;;;5053834;28;20755;-73
2022/09/23 02:22:02;;;;;;;1.10;0.70;;;10.40;1.00;;;;;;5050230;28;20461;-73
2022/09/23 02:24:33;;;;;;;1.30;0.67;;;10.50;99.90;;;;;;5054419;28;20538;-72
2022/09/23 02:27:10;;;;;;;1.33;0.70;;;10.40;1.00;;;;;;5051821;28;20455;-73
2022/09/23 02:29:47;;;;;;;1.03;0.60;;;10.30;99.90;;;;;;5054358;28;20455;-73
2022/09/23 02:32:20;;;;;;;0.93;0.70;;;10.20;1.00;;;;;;5053169;28;20906;-73
2022/09/23 02:34:58;;;;;;;1.07;0.70;;;10.20;1.00;;;;;;5056655;28;20443;-73
2022/09/23 02:37:34;;;;;;;0.90;0.70;;;10.20;1.00;;;;;;5057244;28;20478;-73
2022/09/23 02:40:09;;;;;;;0.90;0.70;;;10.20;1.00;;;;;;5056809;28;20450;-73
2022/09/23 02:42:45;;;;;;;1.07;0.70;;;10.20;1.00;;;;;;5054830;28;20481;-72
2022/09/23 02:45:12;;;;;;;1.10;0.70;;;10.30;1.00;;;;;;5056506;28;20553;-72
2022/09/23 02:47:44;;;;;;;1.10;0.73;;;10.40;99.90;;;;;;5055274;28;20741;-73
2022/09/23 02:50:12;;;;;;;1.20;0.80;;;10.40;99.90;;;;;;5056219;28;20537;-72
2022/09/23 02:52:39;;;;;;;0.80;0.67;;;10.40;99.90;;;;;;5054302;28;20459;-73
2022/09/23 02:55:10;;;;;;;1.60;0.70;;;10.40;99.90;;;;;;5056346;28;20458;-73
2022/09/23 02:57:37;;;;;;;0.90;0.60;;;10.40;99.90;;;;;;5053628;28;20514;-73
2022/09/23 03:00:05;;;;;;;0.90;0.70;;;10.30;99.90;;;;;;5056597;28;20448;-73
2022/09/23 03:03:01;;;;;;;0.90;0.60;;;10.20;99.90;;;;;;5055083;28;20447;-73
2022/09/23 03:05:34;;;;;;;1.30;0.70;;;10.20;99.90;;;;;;5055587;28;20446;-73
2022/09/23 03:08:22;;;;;;;1.40;0.73;;;10.20;1.00;;;;;;5060096;28;20565;-73
2022/09/23 03:10:55;;;;;;;0.90;0.70;;;10.20;99.90;;;;;;5056348;28;20462;-72
2022/09/23 03:13:34;;;;;;;0.90;0.60;;;10.10;99.90;;;;;;5059897;28;20487;-72
2022/09/23 03:16:09;;;;;;;2.00;0.80;;;10.00;99.90;;;;;;5060357;28;20887;-73
2022/09/23 03:18:42;;;;;;;1.07;0.70;;;10.00;1.00;;;;;;5060053;28;20947;-73
2022/09/23 03:21:16;;;;;;;1.47;0.80;;;9.90;1.00;;;;;;5059137;28;20542;-73
2022/09/23 03:23:44;;;;;;;1.47;0.70;;;10.00;1.00;;;;;;5057129;28;20451;-73
2022/09/23 03:26:16;;;;;;;1.33;0.70;;;10.10;1.00;;;;;;5059588;28;20450;-72
2022/09/23 03:28:45;;;;;;;2.80;0.80;;;10.10;99.90;;;;;;5057783;28;20770;-73
2022/09/23 03:31:14;;;;;;;1.00;0.80;;;10.20;95.20;;;;;;5059619;28;20434;-72
2022/09/23 03:33:45;;;;;;;1.03;0.63;;;10.20;1.00;;;;;;5058842;28;20928;-73
2022/09/23 03:39:06;;;;;;;0.80;0.60;;;10.20;99.90;;;;;;5057256;28;20788;-73
2022/09/23 03:41:38;;;;;;;1.07;0.70;;;10.20;11.80;;;;;;5057868;28;20483;-74
2022/09/23 03:44:07;;;;;;;1.00;0.70;;;10.10;1.00;;;;;;5059799;28;20482;-74
2022/09/23 03:46:35;;;;;;;0.90;0.60;;;10.00;1.00;;;;;;5057092;28;20928;-73
2022/09/23 03:49:10;;;;;;;1.03;0.60;;;9.90;1.00;;;;;;5060002;28;20454;-73
2022/09/23 03:51:38;;;;;;;2.00;0.80;;;9.90;1.00;;;;;;5056745;28;20794;-74
2022/09/23 03:54:05;;;;;;;1.87;0.80;;;9.90;1.00;;;;;;5059119;28;20972;-73
2022/09/23 03:56:32;;;;;;;0.93;0.60;;;9.90;1.00;;;;;;5056103;28;20465;-73
2022/09/23 03:58:59;;;;;;;2.97;0.80;;;10.00;1.00;;;;;;5059426;28;20455;-73
2022/09/23 04:01:26;;;;;;;1.00;0.70;;;10.00;99.90;;;;;;5056110;28;20454;-73
2022/09/23 04:03:53;;;;;;;1.33;0.70;;;10.00;1.00;;;;;;5058126;28;20545;-74
2022/09/23 04:06:20;;;;;;;1.10;0.60;;;10.00;99.90;;;;;;5055489;28;20451;-73
2022/09/23 04:08:48;;;;;;;0.90;0.60;;;9.80;1.00;;;;;;5058584;28;20546;-73
2022/09/23 04:11:15;;;;;;;1.63;0.80;;;9.80;1.00;;;;;;5056641;28;20448;-73
2022/09/23 04:13:42;;;;;;;1.03;0.70;;;9.70;1.00;;;;;;5056033;28;21035;-75
2022/09/23 04:16:09;;;;;;;1.20;0.60;;;9.80;99.90;;;;;;5057003;28;20451;-73
2022/09/23 04:18:36;;;;;;;0.80;0.60;;;9.70;16.20;;;;;;5058025;28;20443;-73
2022/09/23 04:21:03;;;;;;;0.90;0.60;;;9.80;99.90;;;;;;5055827;28;20882;-72
2022/09/23 04:23:30;;;;;;;1.20;0.90;;;9.90;99.90;;;;;;5056698;28;20439;-73
2022/09/23 04:25:58;;;;;;;1.00;0.60;;;10.00;1.00;;;;;;5055589;28;20954;-73
2022/09/23 04:28:25;;;;;;;1.00;0.70;;;9.90;1.00;;;;;;5058231;28;20492;-73
2022/09/23 04:30:53;;;;;;;1.10;0.80;;;9.80;1.00;;;;;;5054810;28;20452;-72
2022/09/23 04:33:20;;;;;;;1.10;0.80;;;9.80;2.70;;;;;;5057329;28;20576;-72
2022/09/23 04:35:50;;;;;;;0.83;0.63;;;9.90;1.00;;;;;;5055499;28;20463;-72
2022/09/23 04:38:17;;;;;;;1.13;0.80;;;10.00;37.00;;;;;;5058575;28;20750;-72
2022/09/23 04:40:45;;;;;;;1.10;0.67;;;10.10;1.00;;;;;;5054618;28;20855;-72
2022/09/23 04:43:16;;;;;;;0.70;0.60;;;10.10;99.90;;;;;;5056550;28;20486;-72
2022/09/23 04:45:43;;;;;;;1.00;0.70;;;10.10;99.90;;;;;;5056296;28;20455;-73
2022/09/23 04:48:10;;;;;;;1.07;0.70;;;10.00;99.90;;;;;;5052389;28;20743;-72
2022/09/23 04:50:37;;;;;;;2.10;0.80;;;10.00;1.00;;;;;;5055572;28;21066;-73
2022/09/23 04:53:04;;;;;;;0.80;0.60;;;9.90;1.00;;;;;;5053172;28;20826;-72
2022/09/23 04:55:31;;;;;;;0.90;0.70;;;9.90;1.00;;;;;;5055522;28;20475;-72
2022/09/23 04:57:58;;;;;;;1.33;0.80;;;10.00;1.00;;;;;;5053995;28;20966;-74
2022/09/23 05:00:27;;;;;;;1.40;0.90;;;9.90;1.00;;;;;;5054958;28;20867;-72
2022/09/23 05:02:54;;;;;;;1.80;0.97;;;9.70;1.00;;;;;;5052121;28;21015;-72
2022/09/23 05:05:22;;;;;;;1.67;0.90;;;9.60;99.90;;;;;;5055337;28;20535;-72
2022/09/23 05:07:51;;;;;;;1.17;0.87;;;9.40;99.90;;;;;;5050877;28;20459;-72
2022/09/23 05:10:18;;;;;;;2.80;1.20;;;9.50;99.90;;;;;;5055848;28;20455;-72
2022/09/23 05:12:46;;;;;;;1.80;1.00;;;9.40;99.90;;;;;;5056085;28;20455;-72
2022/09/23 05:15:14;;;;;;;1.93;1.00;;;9.40;1.00;;;;;;5056208;28;20483;-72
2022/09/23 05:17:43;;;;;;;1.53;0.90;;;9.40;1.00;;;;;;5051820;28;20463;-72
2022/09/23 05:20:12;;;;;;;1.70;1.00;;;9.20;1.00;;;;;;5055667;28;20456;-72
2022/09/23 05:22:39;;;;;;;1.83;0.93;;;9.10;1.00;;;;;;5052234;28;20455;-72
2022/09/23 05:25:06;;;;;;;1.60;0.90;;;9.00;1.00;;;;;;5053874;28;20924;-72
2022/09/23 05:27:33;;;;;;;1.40;1.10;;;9.10;1.00;;;;;;5051947;28;20459;-72
2022/09/23 05:30:00;;;;;;;1.40;0.90;;;9.10;1.00;;;;;;5055229;28;20443;-72
2022/09/23 05:32:27;;;;;;;2.33;1.20;;;9.20;1.00;;;;;;5053956;28;20436;-72
2022/09/23 05:34:56;;;;;;;1.53;1.00;;;9.20;1.00;;;;;;5056182;28;20541;-72
2022/09/23 05:37:24;;;;;;;1.53;1.17;;;9.30;1.00;;;;;;5056118;28;20493;-72
2022/09/23 05:39:51;;;;;;;2.70;0.90;;;9.30;1.00;;;;;;5055746;28;20455;-72
2022/09/23 05:42:19;;;;;;;1.43;0.93;;;9.60;1.00;;;;;;5051813;28;20550;-72
2022/09/23 05:44:46;;;;;;;1.90;0.90;;;9.70;99.90;;;;;;5056142;28;20443;-73
2022/09/23 05:47:13;;;;;;;1.53;1.00;;;9.90;99.90;;;;;;5055555;28;20462;-73
2022/09/23 05:49:43;;;;;;;1.13;0.80;;;10.10;1.00;;;;;;5055619;28;20447;-73
2022/09/23 05:52:15;;;;;;;2.07;1.00;;;10.20;1.00;;;;;;5052497;28;20455;-72
2022/09/23 05:54:42;;;;;;;1.87;0.90;;;10.20;99.90;;;;;;5054678;28;20489;-73
2022/09/23 05:57:09;;;;;;;2.07;0.80;;;10.30;99.90;;;;;;5051899;28;20451;-72
2022/09/23 05:59:36;;;;;;;1.27;0.97;;;10.30;1.00;;;;;;5053943;28;20526;-72
2022/09/23 06:02:03;;;;;;;1.37;0.80;;;10.30;1.00;;;;;;5049700;28;20456;-74
2022/09/23 06:04:30;;;;;;;6.47;2.37;;;10.30;1.00;;;;;;5052312;28;20479;-73
2022/09/23 06:06:57;;;;;;;12.97;8.30;;;10.20;16.50;;;;;;5050121;28;20553;-73
2022/09/23 06:09:25;;;;;;;2.13;1.20;;;10.20;1.00;;;;;;5054276;28;20454;-72
2022/09/23 06:11:55;;;;;;;2.20;0.87;;;10.10;99.90;;;;;;5058163;28;20450;-72
2022/09/23 06:14:22;;;;;;;2.27;0.70;;;10.00;99.90;;;;;;5066631;28;20492;-72
2022/09/23 06:16:49;;;;;;;2.80;0.87;;;9.90;1.00;;;;;;5086350;28;20537;-73
2022/09/23 06:19:15;;;;;;;1.47;0.83;;;9.80;1.00;;;;;;5059519;28;20448;-73
2022/09/23 06:21:42;;;;;;;1.10;0.70;;;9.80;65.90;;;;;;5071975;28;20472;-73
2022/09/23 06:24:09;;;;;;;1.20;0.90;;;9.80;11.70;;;;;;5089329;28;20541;-72
2022/09/23 06:26:38;;;;;;;5.63;0.90;;;9.80;1.00;;;;;;5075513;28;20446;-72
2022/09/23 06:29:10;;;;;;;1.30;0.80;;;9.90;99.90;;;;;;5091087;28;20431;-73
2022/09/23 06:31:39;;;;;;;2.90;0.80;;;10.00;1.00;;;;;;5062868;28;20450;-74
2022/09/23 06:34:06;;;;;;;1.60;0.90;;;9.90;1.00;;;;;;5075106;28;20544;-74
2022/09/23 06:36:33;;;;;;;1.73;0.80;;;9.90;1.00;;;;;;5086991;28;20441;-72
2022/09/23 06:39:01;;;;;;;1.13;0.80;;;9.90;1.00;;;;;;5082114;28;20499;-72
2022/09/23 06:41:28;;;;;;;3.83;0.90;;;9.90;41.30;;;;;;5086211;28;20440;-70
2022/09/23 06:43:56;;;;;;;1.30;0.80;;;9.90;1.00;;;;;;5075515;28;20494;-72
2022/09/23 06:46:24;;;;;;;1.93;0.77;;;9.90;99.90;;;;;;5075272;28;20504;-72
2022/09/23 06:48:51;;;;;;;1.27;0.90;;;10.00;41.80;;;;;;5081420;28;20446;-72
2022/09/23 06:51:19;;;;;;;1.50;0.90;;;10.10;12.80;;;;;;5076342;28;20454;-72
2022/09/23 06:53:47;;;;;;;1.30;0.87;;;10.10;1.00;;;;;;5074229;28;20523;-73
2022/09/23 06:56:15;;;;;;;1.40;0.70;;;10.20;1.00;;;;;;5077749;28;20483;-74
2022/09/23 06:58:42;;;;;;;1.07;0.80;;;10.30;1.00;;;;;;5073863;28;20561;-74
2022/09/23 07:01:14;;;;;;;0.80;0.63;;;10.30;1.00;;;;;;5079480;28;20460;-74
2022/09/23 07:03:42;;;;;;;1.50;0.70;;;10.50;99.90;;;;;;5062618;28;20819;-74
2022/09/23 07:06:09;;;;;;;2.20;0.80;;;10.60;99.90;;;;;;5099682;28;20444;-73
2022/09/23 07:08:37;;;;;;;1.60;0.70;;;10.70;99.90;;;;;;5078384;28;20446;-72
2022/09/23 07:11:06;;;;;;;1.20;0.80;;;10.80;99.90;;;;;;5091613;28;20438;-73
2022/09/23 07:13:33;;;;;;;2.03;0.80;;;11.00;1.00;;;;;;5077305;28;20438;-73
2022/09/23 07:16:01;;;;;;;1.20;0.80;;;11.10;99.90;;;;;;5083329;28;20473;-73
2022/09/23 07:18:32;;;;;;;1.70;0.70;;;11.30;1.00;;;;;;5094813;28;20484;-73
2022/09/23 07:21:06;;;;;;;2.30;0.80;;;11.50;99.90;;;;;;5092069;28;20449;-73
2022/09/23 07:23:33;;;;;;;1.30;0.67;;;11.60;43.60;;;;;;5077430;28;20454;-72
2022/09/23 07:26:00;;;;;;;1.03;0.70;;;11.70;1.00;;;;;;5094192;28;20439;-72
2022/09/23 07:28:27;;;;;;;0.93;0.70;;;11.70;99.90;;;;;;5088148;28;20874;-73
2022/09/23 07:30:56;;;;;;;1.00;0.70;;;11.90;99.90;;;;;;5087294;28;20769;-73
2022/09/23 07:33:23;;;;;;;1.20;0.60;;;11.90;1.00;;;;;;5085856;28;20454;-73
2022/09/23 07:35:53;;;;;;;2.00;0.80;;;12.00;1.00;;;;;;5095462;28;20599;-73
2022/09/23 07:38:23;;;;;;;0.90;0.70;;;12.20;1.00;;;;;;5074882;28;20458;-73
2022/09/23 07:40:50;;;;;;;1.00;0.77;;;12.20;1.00;;;;;;5078660;28;20442;-74
2022/09/23 07:43:17;;;;;;;0.97;0.63;;;12.30;1.00;;;;;;5079158;28;20924;-75
2022/09/23 07:45:45;;;;;;;0.90;0.77;;;12.40;1.00;;;;;;5078749;28;20496;-75
2022/09/23 07:48:12;;;;;;;1.67;0.70;;;12.50;1.00;;;;;;5074774;28;20481;-75
2022/09/23 07:50:41;;;;;;;1.40;0.80;;;12.70;1.00;;;;;;5078347;28;20451;-75
2022/09/23 07:53:10;;;;;;;1.50;0.80;;;12.80;1.00;;;;;;5076383;28;20476;-74
2022/09/23 07:55:37;;;;;;;1.20;0.80;;;12.90;1.00;;;;;;5078140;28;20565;-74
2022/09/23 07:58:03;;;;;;;0.80;0.80;;;12.90;1.00;;;;;;5075759;28;20454;-74
2022/09/23 08:00:32;;;;;;;1.10;0.80;;;13.00;99.90;;;;;;5077565;28;20454;-74
2022/09/23 08:02:58;;;;;;;1.80;1.00;;;13.00;99.90;;;;;;5073158;28;20462;-75
2022/09/23 08:05:26;;;;;;;3.17;0.93;;;13.00;99.90;;;;;;5078511;28;20512;-74
2022/09/23 08:07:56;;;;;;;1.00;0.80;;;13.00;99.90;;;;;;5073315;28;20461;-75
2022/09/23 08:10:27;;;;;;;3.80;0.90;;;13.10;99.90;;;;;;5079076;28;20486;-73
2022/09/23 08:12:54;;;;;;;1.00;0.70;;;13.10;99.90;;;;;;5074009;28;20463;-73
2022/09/23 08:15:21;;;;;;;1.77;0.83;;;13.10;99.90;;;;;;5077599;28;21174;-73
2022/09/23 08:17:48;;;;;;;1.50;0.90;;;13.20;99.90;;;;;;5072980;28;20464;-74
2022/09/23 08:20:43;;;;;;;1.40;0.90;;;13.30;99.90;;;;;;5076709;28;20549;-73
2022/09/23 08:23:02;;;;;;;1.57;0.90;;;13.40;99.90;;;;;;5073787;28;20450;-74
2022/09/23 08:25:31;;;;;;;1.10;0.80;;;13.40;99.90;;;;;;5077233;28;20525;-73
2022/09/23 08:27:58;;;;;;;1.40;0.80;;;13.40;99.90;;;;;;5055599;28;20507;-74
2022/09/23 08:30:25;;;;;;;2.40;0.73;;;13.50;99.90;;;;;;5076888;28;20955;-73
2022/09/23 08:32:52;;;;;;;1.90;0.80;;;13.70;99.90;;;;;;5073438;28;20561;-73
2022/09/23 08:35:19;;;;;;;2.03;0.97;;;13.80;99.90;;;;;;5078163;28;20490;-74
2022/09/23 08:37:46;;;;;;;1.10;0.70;;;13.70;99.90;;;;;;5071998;28;20477;-73
2022/09/23 08:40:14;;;;;;;1.43;0.80;;;13.70;99.90;;;;;;5076533;28;20829;-72
2022/09/23 08:42:44;;;;;;;1.20;0.80;;;13.90;99.90;;;;;;5073481;28;20475;-72
2022/09/23 08:45:18;;;;;;;1.07;0.60;;;14.00;99.90;;;;;;5068430;28;20531;-72
2022/09/23 08:47:51;;;;;;;0.90;0.70;;;14.10;99.90;;;;;;5052360;28;20458;-72
2022/09/23 08:50:20;;;;;;;2.57;0.80;;;14.30;99.90;;;;;;5073245;28;20806;-72
2022/09/23 08:52:52;;;;;;;1.00;0.70;;;14.40;99.90;;;;;;5074735;28;20469;-72
2022/09/23 08:55:20;;;;;;;1.33;0.80;;;14.50;99.90;;;;;;5065607;28;20892;-72
2022/09/23 08:58:05;;;;;;;1.53;0.70;;;14.40;99.90;;;;;;5088216;28;20874;-72
2022/09/23 09:00:40;;;;;;;2.00;0.87;;;14.20;99.90;;;;;;5084433;28;20943;-72
2022/09/23 09:03:20;;;;;;;1.10;0.80;;;14.30;99.90;;;;;;5076313;28;20458;-72
2022/09/23 09:05:48;;;;;;;1.00;0.80;;;14.40;99.90;;;;;;5064123;28;20487;-72
2022/09/23 09:08:23;;;;;;;2.23;0.70;;;14.40;89.10;;;;;;5087499;28;20457;-72
2022/09/23 09:10:54;;;;;;;0.97;0.70;;;14.50;59.50;;;;;;5077904;28;20449;-72
2022/09/23 09:13:29;;;;;;;1.73;0.70;;;14.60;55.30;;;;;;5074526;28;20502;-72
2022/09/23 09:16:15;;;;;;;0.83;0.60;;;14.80;6.90;;;;;;5090995;28;20945;-73
2022/09/23 09:18:51;;;;;;;0.77;0.63;;;15.00;16.70;;;;;;5073444;28;20526;-72
2022/09/23 09:21:22;;;;;;;0.77;0.57;;;15.10;1.00;;;;;;5076267;28;20907;-73
2022/09/23 09:23:54;;;;;;;0.80;0.60;;;15.20;1.00;;;;;;5077293;28;20866;-73
2022/09/23 09:26:23;;;;;;;1.17;0.70;;;15.20;1.00;;;;;;5075411;28;20447;-72
2022/09/23 09:28:58;;;;;;;1.60;0.80;;;15.20;1.00;;;;;;5075884;28;20453;-72
2022/09/23 09:31:31;;;;;;;1.57;0.80;;;15.20;1.00;;;;;;5072346;28;20426;-72
2022/09/23 09:34:03;;;;;;;0.87;0.77;;;15.40;1.00;;;;;;5075108;28;20858;-72
2022/09/23 09:36:38;;;;;;;0.90;0.60;;;15.40;1.00;;;;;;5073422;28;20512;-72
2022/09/23 09:39:06;;;;;;;0.80;0.60;;;15.50;1.00;;;;;;5076473;28;20454;-72
2022/09/23 09:41:32;;;;;;;0.90;0.70;;;15.60;1.00;;;;;;5071914;28;20529;-72
2022/09/23 09:44:09;;;;;;;0.90;0.70;;;15.80;1.00;;;;;;5075995;28;20972;-72
2022/09/23 09:46:53;;;;;;;1.17;0.70;;;16.00;1.00;;;;;;5060564;28;20454;-72
2022/09/23 09:49:30;;;;;;;1.73;0.60;;;16.20;1.00;;;;;;5054912;28;20549;-73
2022/09/23 09:52:22;;;;;;;1.73;0.60;;;16.30;1.00;;;;;;5052969;28;20467;-73
2022/09/23 09:54:49;;;;;;;0.80;0.50;;;16.50;1.00;;;;;;5056686;28;20455;-73
2022/09/23 09:57:28;;;;;;;1.17;0.70;;;16.80;1.00;;;;;;5061337;28;20450;-74
2022/09/23 09:59:57;;;;;;;1.00;0.60;;;17.00;1.00;;;;;;5096724;28;20438;-74
2022/09/23 10:02:31;;;;;;;1.13;0.50;;;16.90;1.00;;;;;;5093801;28;20453;-77
2022/09/23 10:05:01;;;;;;;0.67;0.57;;;16.70;1.00;;;;;;5096115;28;20544;-77
2022/09/23 10:07:30;;;;;;;1.70;0.53;;;16.90;1.00;;;;;;5091728;28;20453;-77
2022/09/23 10:09:57;;;;;;;1.63;0.60;;;17.20;1.00;;;;;;5095459;28;21051;-77
2022/09/23 10:12:25;;;;;;;0.83;0.60;;;17.30;1.00;;;;;;5092885;28;20450;-78
2022/09/23 10:14:59;;;;;;;0.90;0.50;;;17.30;1.00;;;;;;5098502;28;20536;-72
2022/09/23 10:17:32;;;;;;;0.80;0.50;;;17.30;1.00;;;;;;5074764;28;20833;-71
2022/09/23 10:20:01;;;;;;;1.20;0.60;;;17.50;1.00;;;;;;5058286;28;20431;-76
2022/09/23 10:22:33;;;;;;;0.70;0.60;;;17.80;1.00;;;;;;5059818;28;20804;-75
2022/09/23 10:25:04;;;;;;;0.70;0.60;;;18.10;1.00;;;;;;5061473;28;20412;-75
2022/09/23 10:27:36;;;;;;;0.97;0.50;;;18.20;1.00;;;;;;5057442;28;20545;-76
2022/09/23 10:30:20;;;;;;;0.80;0.50;;;18.40;1.00;;;;;;5079227;28;20443;-76
2022/09/23 10:32:48;;;;;;;0.87;0.60;;;18.60;1.00;;;;;;5078802;28;20488;-76
2022/09/23 10:35:17;;;;;;;0.90;0.53;;;18.80;1.00;;;;;;5067465;28;20494;-76
2022/09/23 10:37:47;;;;;;;0.80;0.60;;;18.80;1.00;;;;;;5059244;28;20466;-76
2022/09/23 10:49:26;;;;;;;1.50;0.80;;;19.40;1.00;;;;;;5080625;28;20410;-77
2022/09/23 10:52:03;;;;;;;1.13;0.60;;;19.70;1.00;;;;;;5075356;28;20454;-74
2022/09/23 10:54:41;;;;;;;0.70;0.60;;;19.90;1.00;;;;;;5073475;28;20504;-75
2022/09/23 10:57:40;;;;;;;0.87;0.70;;;19.80;1.00;;;;;;5064349;28;20577;-74
2022/09/23 11:00:22;;;;;;;0.80;0.60;;;20.00;1.00;;;;;;5057993;28;20457;-74
2022/09/23 11:03:24;;;;;;;0.70;0.60;;;20.20;1.00;;;;;;5058185;28;20490;-74
2022/09/23 11:06:03;;;;;;;0.73;0.50;;;20.30;1.00;;;;;;5032777;28;20550;-74
2022/09/23 11:08:50;;;;;;;1.50;0.60;;;20.50;1.00;;;;;;5056733;28;20453;-74
2022/09/23 11:11:33;;;;;;;2.47;0.70;;;20.20;1.00;;;;;;5068686;28;20450;-74
2022/09/23 11:14:19;;;;;;;1.93;0.80;;;20.30;1.00;;;;;;5059659;28;20445;-71
2022/09/23 11:16:59;;;;;;;1.00;0.70;;;20.40;1.00;;;;;;5074328;28;20544;-72
2022/09/23 11:19:54;;;;;;;1.47;0.63;;;20.50;1.00;;;;;;5097304;28;20453;-73
2022/09/23 11:22:38;;;;;;;0.83;0.70;;;20.80;1.00;;;;;;5091450;28;20460;-73
2022/09/23 11:25:22;;;;;;;0.93;0.80;;;21.00;1.00;;;;;;5098438;28;20517;-73
2022/09/23 11:28:22;;;;;;;1.00;0.70;;;21.20;1.00;;;;;;5096878;28;20488;-73
2022/09/23 11:30:59;;;;;;;0.90;0.70;;;20.90;1.00;;;;;;5098427;28;21083;-73
2022/09/23 11:33:40;;;;;;;3.03;0.83;;;20.80;1.00;;;;;;5095335;28;20791;-72
2022/09/23 11:36:13;;;;;;;1.90;0.80;;;20.60;1.00;;;;;;5099019;28;20571;-72
2022/09/23 11:38:45;;;;;;;2.60;0.80;;;20.40;1.00;;;;;;5090634;28;20488;-72
2022/09/23 11:41:17;;;;;;;1.53;0.80;;;20.10;1.00;;;;;;5071276;28;20806;-73
2022/09/23 11:43:51;;;;;;;2.63;0.77;;;19.80;1.00;;;;;;5083764;28;20482;-72
2022/09/23 11:46:27;;;;;;;1.00;0.60;;;19.90;1.00;;;;;;5089148;28;20439;-74
2022/09/23 11:48:58;;;;;;;1.40;0.80;;;20.10;1.00;;;;;;5073066;28;20450;-74
2022/09/23 11:51:30;;;;;;;1.37;0.60;;;20.20;1.00;;;;;;5071941;28;20452;-74
2022/09/23 11:54:02;;;;;;;1.03;0.70;;;20.20;1.00;;;;;;5054332;28;20458;-74
2022/09/23 11:56:34;;;;;;;1.07;0.70;;;20.10;1.00;;;;;;5063971;28;20485;-74
2022/09/23 11:59:11;;;;;;;0.80;0.60;;;20.00;1.00;;;;;;5069902;28;20471;-74
2022/09/23 12:01:44;;;;;;;1.00;0.67;;;20.20;1.00;;;;;;5079619;28;20488;-75
2022/09/23 12:04:19;;;;;;;1.13;0.73;;;20.40;1.00;;;;;;5056541;28;20456;-75
2022/09/23 12:06:49;;;;;;;0.90;0.80;;;20.40;1.00;;;;;;5068156;28;20432;-74
2022/09/23 12:09:22;;;;;;;1.10;0.80;;;20.20;1.00;;;;;;5061248;28;20442;-75
2022/09/23 12:11:55;;;;;;;0.73;0.60;;;19.60;1.00;;;;;;5076254;28;20456;-75
2022/09/23 12:14:32;;;;;;;1.10;0.93;;;19.40;1.00;;;;;;5057104;28;20447;-75
2022/09/23 12:17:23;;;;;;;0.70;0.60;;;19.80;1.00;;;;;;5058333;28;20571;-75
2022/09/23 12:20:27;;;;;;;1.10;0.60;;;20.00;1.00;;;;;;5059259;28;20523;-74
2022/09/23 12:23:04;;;;;;;1.40;0.70;;;20.20;1.00;;;;;;5056085;28;20482;-75
2022/09/23 12:25:46;;;;;;;2.07;0.90;;;20.40;1.00;;;;;;5058953;28;20516;-74
2022/09/23 12:28:17;;;;;;;0.90;0.70;;;20.20;1.00;;;;;;5052754;28;20470;-75
2022/09/23 12:30:46;;;;;;;0.70;0.70;;;20.00;1.00;;;;;;5056799;28;20479;-74
2022/09/23 12:33:23;;;;;;;1.10;0.70;;;20.00;1.00;;;;;;5052794;28;20462;-74
2022/09/23 12:35:52;;;;;;;1.10;0.73;;;20.10;1.00;;;;;;5055690;28;20475;-74
2022/09/23 12:38:24;;;;;;;1.67;0.80;;;20.20;1.00;;;;;;5054887;28;20456;-74
2022/09/23 12:40:52;;;;;;;1.10;0.60;;;20.20;1.00;;;;;;5057266;28;20852;-74
2022/09/23 12:43:28;;;;;;;1.00;0.80;;;20.30;1.00;;;;;;5053236;28;20875;-75
2022/09/23 12:46:16;;;;;;;1.10;0.80;;;20.50;1.00;;;;;;5054539;28;20451;-75
2022/09/23 12:49:05;;;;;;;1.03;0.73;;;20.60;1.00;;;;;;5053995;28;20910;-74
2022/09/23 12:51:33;;;;;;;2.40;0.80;;;20.60;1.00;;;;;;5056712;28;20534;-74
2022/09/23 12:54:22;;;;;;;1.67;0.90;;;20.70;1.00;;;;;;5053600;28;20455;-74
2022/09/23 12:57:03;;;;;;;1.23;0.70;;;20.70;1.00;;;;;;5056301;28;20483;-74
2022/09/23 12:59:58;;;;;;;1.10;0.80;;;20.70;1.00;;;;;;5053264;28;20487;-74
2022/09/23 13:02:29;;;;;;;1.20;0.80;;;20.70;1.00;;;;;;5051948;28;20483;-76
2022/09/23 13:07:59;;;;;;;2.00;0.90;;;20.90;1.00;;;;;;5051894;28;20516;-75
2022/09/23 13:10:29;;;;;;;2.30;1.00;;;20.80;1.00;;;;;;5054874;28;20443;-75
2022/09/23 13:12:58;;;;;;;1.50;1.10;;;20.70;1.00;;;;;;5053383;28;20826;-75
2022/09/23 13:15:29;;;;;;;24.27;21.77;;;20.70;1.00;;;;;;5050559;28;20435;-74
2022/09/23 13:18:29;;;;;;;1.67;1.37;;;20.40;1.00;;;;;;5049368;28;20479;-75
2022/09/23 13:20:57;;;;;;;1.93;1.00;;;20.30;1.00;;;;;;5053672;28;20447;-74
2022/09/23 13:23:26;;;;;;;2.47;1.00;;;20.10;1.00;;;;;;5050413;28;20554;-74
2022/09/23 13:25:56;;;;;;;1.47;1.00;;;20.10;1.00;;;;;;5054386;28;20918;-73
2022/09/23 13:28:35;;;;;;;1.20;1.03;;;20.00;1.00;;;;;;5048167;28;20538;-73
2022/09/23 13:31:05;;;;;;;12.73;8.77;;;19.80;1.00;;;;;;5054939;28;20443;-74
2022/09/23 13:33:40;;;;;;;1.70;1.10;;;19.60;1.00;;;;;;5054885;28;20455;-73
2022/09/23 13:36:14;;;;;;;1.77;0.70;;;19.70;1.00;;;;;;5056577;28;20481;-73